Terminal Aerodrome Forecast
Issued by NWS

Home | Current Version | Previous Version | Text Only | Print | Product List | Glossary Off
Versions: 1 2 3 4 5 6 7 8 9 10 11 12 13 14 15 16 17 18 19 20 21

000
FTUS43 KABR 221702 AAC
TAFPIR
TAF AMD
KPIR 221702Z 2217/2312 31017KT 1SM BR OVC002
     FM221800 33011KT 6SM BR BKN006 BKN150
     FM230000 33007KT P6SM FEW050
     FM230800 29005KT P6SM BKN020=

USA.gov is the U.S. government's official web portal to all federal, state and local government web resources and services.